sensor_id;sensor_type;location;lat;lon;timestamp;P1;durP1;ratioP1;P2;durP2;ratioP2
10216;SDS011;5152;59.674;16.838;2023-01-10T00:01:41;8.40;;;4.40;;
10216;SDS011;5152;59.674;16.838;2023-01-10T00:04:08;11.83;;;5.53;;
10216;SDS011;5152;59.674;16.838;2023-01-10T00:06:35;9.57;;;4.83;;
10216;SDS011;5152;59.674;16.838;2023-01-10T00:09:01;8.77;;;3.73;;
10216;SDS011;5152;59.674;16.838;2023-01-10T00:11:28;8.90;;;4.67;;
10216;SDS011;5152;59.674;16.838;2023-01-10T00:14:14;11.20;;;4.57;;
10216;SDS011;5152;59.674;16.838;2023-01-10T00:16:41;10.57;;;5.13;;
10216;SDS011;5152;59.674;16.838;2023-01-10T00:19:08;16.37;;;5.73;;
10216;SDS011;5152;59.674;16.838;2023-01-10T00:21:35;13.30;;;5.70;;
10216;SDS011;5152;59.674;16.838;2023-01-10T00:24:04;9.17;;;5.00;;
10216;SDS011;5152;59.674;16.838;2023-01-10T00:26:41;9.23;;;5.37;;
10216;SDS011;5152;59.674;16.838;2023-01-10T00:29:10;8.73;;;4.37;;
10216;SDS011;5152;59.674;16.838;2023-01-10T00:31:38;7.37;;;3.60;;
10216;SDS011;5152;59.674;16.838;2023-01-10T00:34:05;10.50;;;4.57;;
10216;SDS011;5152;59.674;16.838;2023-01-10T00:36:32;9.17;;;4.70;;
10216;SDS011;5152;59.674;16.838;2023-01-10T00:38:59;10.80;;;5.47;;
10216;SDS011;5152;59.674;16.838;2023-01-10T00:41:26;8.30;;;3.90;;
10216;SDS011;5152;59.674;16.838;2023-01-10T00:44:10;12.57;;;5.20;;
10216;SDS011;5152;59.674;16.838;2023-01-10T00:46:38;9.77;;;4.60;;
10216;SDS011;5152;59.674;16.838;2023-01-10T00:49:05;8.67;;;4.60;;
10216;SDS011;5152;59.674;16.838;2023-01-10T00:51:35;8.50;;;4.70;;
10216;SDS011;5152;59.674;16.838;2023-01-10T00:54:02;8.77;;;4.53;;
10216;SDS011;5152;59.674;16.838;2023-01-10T00:56:28;10.60;;;5.30;;
10216;SDS011;5152;59.674;16.838;2023-01-10T00:58:55;9.90;;;4.10;;
10216;SDS011;5152;59.674;16.838;2023-01-10T01:01:22;7.70;;;3.90;;
10216;SDS011;5152;59.674;16.838;2023-01-10T01:03:50;9.13;;;4.77;;
10216;SDS011;5152;59.674;16.838;2023-01-10T01:06:17;9.80;;;3.90;;
10216;SDS011;5152;59.674;16.838;2023-01-10T01:08:43;9.40;;;4.40;;
10216;SDS011;5152;59.674;16.838;2023-01-10T01:11:10;8.17;;;4.80;;
10216;SDS011;5152;59.674;16.838;2023-01-10T01:13:37;7.90;;;4.80;;
10216;SDS011;5152;59.674;16.838;2023-01-10T01:16:04;4.93;;;3.43;;
10216;SDS011;5152;59.674;16.838;2023-01-10T01:18:31;8.70;;;4.37;;
10216;SDS011;5152;59.674;16.838;2023-01-10T01:20:59;8.10;;;4.07;;
10216;SDS011;5152;59.674;16.838;2023-01-10T01:23:28;11.67;;;5.00;;
10216;SDS011;5152;59.674;16.838;2023-01-10T01:25:55;9.20;;;5.10;;
10216;SDS011;5152;59.674;16.838;2023-01-10T01:28:22;6.53;;;3.40;;
10216;SDS011;5152;59.674;16.838;2023-01-10T01:30:49;6.60;;;3.50;;
10216;SDS011;5152;59.674;16.838;2023-01-10T01:33:16;8.07;;;4.70;;
10216;SDS011;5152;59.674;16.838;2023-01-10T01:35:44;10.43;;;5.13;;
10216;SDS011;5152;59.674;16.838;2023-01-10T01:38:14;8.70;;;4.40;;
10216;SDS011;5152;59.674;16.838;2023-01-10T01:40:41;5.90;;;3.47;;
10216;SDS011;5152;59.674;16.838;2023-01-10T01:43:17;9.33;;;5.47;;
10216;SDS011;5152;59.674;16.838;2023-01-10T01:45:47;10.83;;;4.87;;
10216;SDS011;5152;59.674;16.838;2023-01-10T01:48:17;8.33;;;4.73;;
10216;SDS011;5152;59.674;16.838;2023-01-10T01:50:54;8.83;;;5.10;;
10216;SDS011;5152;59.674;16.838;2023-01-10T01:53:27;10.07;;;4.80;;
10216;SDS011;5152;59.674;16.838;2023-01-10T01:55:58;6.23;;;3.90;;
10216;SDS011;5152;59.674;16.838;2023-01-10T01:58:28;8.50;;;4.43;;
10216;SDS011;5152;59.674;16.838;2023-01-10T02:00:57;7.27;;;4.07;;
10216;SDS011;5152;59.674;16.838;2023-01-10T02:03:24;6.97;;;3.50;;
10216;SDS011;5152;59.674;16.838;2023-01-10T02:05:51;7.07;;;3.40;;
10216;SDS011;5152;59.674;16.838;2023-01-10T02:08:18;6.37;;;3.73;;
10216;SDS011;5152;59.674;16.838;2023-01-10T02:10:47;8.50;;;4.47;;
10216;SDS011;5152;59.674;16.838;2023-01-10T02:13:17;6.77;;;3.90;;
10216;SDS011;5152;59.674;16.838;2023-01-10T02:15:45;8.90;;;5.20;;
10216;SDS011;5152;59.674;16.838;2023-01-10T02:18:11;7.30;;;3.80;;
10216;SDS011;5152;59.674;16.838;2023-01-10T02:20:41;9.30;;;4.83;;
10216;SDS011;5152;59.674;16.838;2023-01-10T02:32:26;7.80;;;4.43;;
10216;SDS011;5152;59.674;16.838;2023-01-10T02:35:00;5.83;;;3.63;;
10216;SDS011;5152;59.674;16.838;2023-01-10T02:37:37;4.03;;;2.93;;
10216;SDS011;5152;59.674;16.838;2023-01-10T02:40:12;8.33;;;4.90;;
10216;SDS011;5152;59.674;16.838;2023-01-10T02:42:42;4.30;;;2.50;;
10216;SDS011;5152;59.674;16.838;2023-01-10T02:45:15;5.50;;;3.53;;
10216;SDS011;5152;59.674;16.838;2023-01-10T02:47:45;9.40;;;5.30;;
10216;SDS011;5152;59.674;16.838;2023-01-10T02:50:24;4.97;;;3.47;;
10216;SDS011;5152;59.674;16.838;2023-01-10T02:52:55;4.60;;;3.13;;
10216;SDS011;5152;59.674;16.838;2023-01-10T02:55:25;3.90;;;2.30;;
10216;SDS011;5152;59.674;16.838;2023-01-10T02:57:55;5.10;;;2.57;;
10216;SDS011;5152;59.674;16.838;2023-01-10T03:00:32;4.63;;;2.90;;
10216;SDS011;5152;59.674;16.838;2023-01-10T03:03:10;4.10;;;2.77;;
10216;SDS011;5152;59.674;16.838;2023-01-10T03:05:45;5.50;;;3.80;;
10216;SDS011;5152;59.674;16.838;2023-01-10T03:08:23;5.33;;;3.20;;
10216;SDS011;5152;59.674;16.838;2023-01-10T03:10:53;5.13;;;2.67;;
10216;SDS011;5152;59.674;16.838;2023-01-10T03:13:25;8.50;;;2.93;;
10216;SDS011;5152;59.674;16.838;2023-01-10T03:15:53;4.70;;;2.87;;
10216;SDS011;5152;59.674;16.838;2023-01-10T03:18:22;5.40;;;3.87;;
10216;SDS011;5152;59.674;16.838;2023-01-10T03:20:52;6.67;;;2.77;;
10216;SDS011;5152;59.674;16.838;2023-01-10T03:23:20;3.70;;;2.60;;
10216;SDS011;5152;59.674;16.838;2023-01-10T03:25:49;4.70;;;2.73;;
10216;SDS011;5152;59.674;16.838;2023-01-10T03:28:18;4.03;;;2.23;;
10216;SDS011;5152;59.674;16.838;2023-01-10T03:30:48;5.20;;;2.90;;
10216;SDS011;5152;59.674;16.838;2023-01-10T03:33:17;5.37;;;3.00;;
10216;SDS011;5152;59.674;16.838;2023-01-10T03:35:51;5.93;;;3.20;;
10216;SDS011;5152;59.674;16.838;2023-01-10T03:38:27;3.57;;;2.73;;
10216;SDS011;5152;59.674;16.838;2023-01-10T03:40:57;5.13;;;2.97;;
10216;SDS011;5152;59.674;16.838;2023-01-10T03:43:31;4.70;;;2.77;;
10216;SDS011;5152;59.674;16.838;2023-01-10T03:46:21;3.30;;;2.60;;
10216;SDS011;5152;59.674;16.838;2023-01-10T03:48:50;4.27;;;2.40;;
10216;SDS011;5152;59.674;16.838;2023-01-10T03:51:18;4.57;;;2.60;;
10216;SDS011;5152;59.674;16.838;2023-01-10T03:53:45;6.17;;;3.30;;
10216;SDS011;5152;59.674;16.838;2023-01-10T03:56:12;6.10;;;3.73;;
10216;SDS011;5152;59.674;16.838;2023-01-10T03:58:39;5.60;;;3.90;;
10216;SDS011;5152;59.674;16.838;2023-01-10T04:01:06;3.03;;;2.20;;
10216;SDS011;5152;59.674;16.838;2023-01-10T04:03:33;4.30;;;2.77;;
10216;SDS011;5152;59.674;16.838;2023-01-10T04:06:00;2.63;;;2.00;;
10216;SDS011;5152;59.674;16.838;2023-01-10T04:08:28;3.37;;;2.70;;
10216;SDS011;5152;59.674;16.838;2023-01-10T04:10:55;3.83;;;2.77;;
10216;SDS011;5152;59.674;16.838;2023-01-10T04:13:21;2.40;;;1.80;;
10216;SDS011;5152;59.674;16.838;2023-01-10T04:15:48;3.97;;;1.90;;
10216;SDS011;5152;59.674;16.838;2023-01-10T04:18:15;3.37;;;2.17;;
10216;SDS011;5152;59.674;16.838;2023-01-10T04:20:43;2.60;;;1.93;;
10216;SDS011;5152;59.674;16.838;2023-01-10T04:23:09;3.13;;;1.73;;
10216;SDS011;5152;59.674;16.838;2023-01-10T04:25:38;2.13;;;1.80;;
10216;SDS011;5152;59.674;16.838;2023-01-10T04:28:04;2.23;;;1.87;;
10216;SDS011;5152;59.674;16.838;2023-01-10T04:30:31;2.70;;;2.40;;
10216;SDS011;5152;59.674;16.838;2023-01-10T04:32:58;2.00;;;1.80;;
10216;SDS011;5152;59.674;16.838;2023-01-10T04:35:24;2.47;;;1.50;;
10216;SDS011;5152;59.674;16.838;2023-01-10T04:37:51;2.73;;;1.83;;
10216;SDS011;5152;59.674;16.838;2023-01-10T04:40:18;4.23;;;3.03;;
10216;SDS011;5152;59.674;16.838;2023-01-10T04:42:48;1.93;;;1.63;;
10216;SDS011;5152;59.674;16.838;2023-01-10T04:45:15;5.77;;;3.60;;
10216;SDS011;5152;59.674;16.838;2023-01-10T04:47:47;1.43;;;1.33;;
10216;SDS011;5152;59.674;16.838;2023-01-10T04:50:15;4.70;;;3.33;;
10216;SDS011;5152;59.674;16.838;2023-01-10T04:52:41;2.40;;;1.80;;
10216;SDS011;5152;59.674;16.838;2023-01-10T04:55:09;6.53;;;4.00;;
10216;SDS011;5152;59.674;16.838;2023-01-10T04:57:35;3.93;;;3.03;;
10216;SDS011;5152;59.674;16.838;2023-01-10T05:00:04;4.27;;;2.07;;
10216;SDS011;5152;59.674;16.838;2023-01-10T05:02:31;3.87;;;2.43;;
10216;SDS011;5152;59.674;16.838;2023-01-10T05:04:58;2.20;;;1.70;;
10216;SDS011;5152;59.674;16.838;2023-01-10T05:07:25;4.30;;;2.40;;
10216;SDS011;5152;59.674;16.838;2023-01-10T05:09:52;2.47;;;1.90;;
10216;SDS011;5152;59.674;16.838;2023-01-10T05:12:19;3.27;;;2.20;;
10216;SDS011;5152;59.674;16.838;2023-01-10T05:14:45;3.93;;;2.60;;
10216;SDS011;5152;59.674;16.838;2023-01-10T05:17:13;4.50;;;3.23;;
10216;SDS011;5152;59.674;16.838;2023-01-10T05:19:40;3.40;;;2.33;;
10216;SDS011;5152;59.674;16.838;2023-01-10T05:22:07;2.20;;;1.90;;
10216;SDS011;5152;59.674;16.838;2023-01-10T05:24:33;7.57;;;3.87;;
10216;SDS011;5152;59.674;16.838;2023-01-10T05:27:00;5.90;;;4.43;;
10216;SDS011;5152;59.674;16.838;2023-01-10T05:29:27;4.13;;;1.70;;
10216;SDS011;5152;59.674;16.838;2023-01-10T05:31:54;5.73;;;2.47;;
10216;SDS011;5152;59.674;16.838;2023-01-10T05:34:22;6.17;;;3.73;;
10216;SDS011;5152;59.674;16.838;2023-01-10T05:36:48;5.30;;;2.50;;
10216;SDS011;5152;59.674;16.838;2023-01-10T05:39:15;6.37;;;3.10;;
10216;SDS011;5152;59.674;16.838;2023-01-10T05:41:42;2.93;;;1.70;;
10216;SDS011;5152;59.674;16.838;2023-01-10T05:44:09;3.77;;;2.37;;
10216;SDS011;5152;59.674;16.838;2023-01-10T05:46:35;5.97;;;3.67;;
10216;SDS011;5152;59.674;16.838;2023-01-10T05:49:02;3.63;;;2.57;;
10216;SDS011;5152;59.674;16.838;2023-01-10T05:51:30;4.53;;;3.60;;
10216;SDS011;5152;59.674;16.838;2023-01-10T05:53:57;2.27;;;1.70;;
10216;SDS011;5152;59.674;16.838;2023-01-10T05:56:23;3.60;;;1.60;;
10216;SDS011;5152;59.674;16.838;2023-01-10T05:58:50;3.93;;;1.40;;
10216;SDS011;5152;59.674;16.838;2023-01-10T06:01:17;4.63;;;1.97;;
10216;SDS011;5152;59.674;16.838;2023-01-10T06:03:44;1.63;;;1.53;;
10216;SDS011;5152;59.674;16.838;2023-01-10T06:06:10;4.13;;;1.43;;
10216;SDS011;5152;59.674;16.838;2023-01-10T06:08:38;4.87;;;1.27;;
10216;SDS011;5152;59.674;16.838;2023-01-10T06:11:05;2.10;;;1.27;;
10216;SDS011;5152;59.674;16.838;2023-01-10T06:13:32;2.03;;;1.73;;
10216;SDS011;5152;59.674;16.838;2023-01-10T06:15:59;2.50;;;1.80;;
10216;SDS011;5152;59.674;16.838;2023-01-10T06:18:26;2.00;;;1.80;;
10216;SDS011;5152;59.674;16.838;2023-01-10T06:20:52;2.27;;;2.00;;
10216;SDS011;5152;59.674;16.838;2023-01-10T06:23:19;3.53;;;1.63;;
10216;SDS011;5152;59.674;16.838;2023-01-10T06:25:47;1.83;;;1.40;;
10216;SDS011;5152;59.674;16.838;2023-01-10T06:28:14;1.90;;;1.50;;
10216;SDS011;5152;59.674;16.838;2023-01-10T06:30:41;1.67;;;1.57;;
10216;SDS011;5152;59.674;16.838;2023-01-10T06:33:08;2.23;;;1.20;;
10216;SDS011;5152;59.674;16.838;2023-01-10T06:35:36;2.53;;;1.73;;
10216;SDS011;5152;59.674;16.838;2023-01-10T06:38:02;1.90;;;1.80;;
10216;SDS011;5152;59.674;16.838;2023-01-10T06:40:29;3.37;;;1.57;;
10216;SDS011;5152;59.674;16.838;2023-01-10T06:42:57;3.80;;;2.40;;
10216;SDS011;5152;59.674;16.838;2023-01-10T06:45:24;1.93;;;1.00;;
10216;SDS011;5152;59.674;16.838;2023-01-10T06:47:50;2.17;;;1.70;;
10216;SDS011;5152;59.674;16.838;2023-01-10T06:50:17;1.37;;;1.17;;
10216;SDS011;5152;59.674;16.838;2023-01-10T06:52:44;3.03;;;1.53;;
10216;SDS011;5152;59.674;16.838;2023-01-10T06:55:11;2.87;;;1.23;;
10216;SDS011;5152;59.674;16.838;2023-01-10T06:57:37;1.90;;;1.50;;
10216;SDS011;5152;59.674;16.838;2023-01-10T07:00:07;6.27;;;2.30;;
10216;SDS011;5152;59.674;16.838;2023-01-10T07:02:35;3.23;;;1.13;;
10216;SDS011;5152;59.674;16.838;2023-01-10T07:05:02;1.20;;;1.10;;
10216;SDS011;5152;59.674;16.838;2023-01-10T07:07:29;2.50;;;1.37;;
10216;SDS011;5152;59.674;16.838;2023-01-10T07:09:56;2.27;;;1.87;;
10216;SDS011;5152;59.674;16.838;2023-01-10T07:12:23;2.00;;;1.10;;
10216;SDS011;5152;59.674;16.838;2023-01-10T07:14:50;1.60;;;1.13;;
10216;SDS011;5152;59.674;16.838;2023-01-10T07:17:18;3.00;;;1.30;;
10216;SDS011;5152;59.674;16.838;2023-01-10T07:19:45;1.43;;;1.20;;
10216;SDS011;5152;59.674;16.838;2023-01-10T07:22:12;4.30;;;3.00;;
10216;SDS011;5152;59.674;16.838;2023-01-10T07:24:38;1.50;;;1.40;;
10216;SDS011;5152;59.674;16.838;2023-01-10T07:27:05;2.43;;;1.60;;
10216;SDS011;5152;59.674;16.838;2023-01-10T07:29:32;4.33;;;1.97;;
10216;SDS011;5152;59.674;16.838;2023-01-10T07:31:59;1.60;;;1.20;;
10216;SDS011;5152;59.674;16.838;2023-01-10T07:34:27;2.00;;;1.30;;
10216;SDS011;5152;59.674;16.838;2023-01-10T07:36:54;2.40;;;1.53;;
10216;SDS011;5152;59.674;16.838;2023-01-10T07:39:21;7.40;;;1.97;;
10216;SDS011;5152;59.674;16.838;2023-01-10T07:41:47;4.93;;;2.27;;
10216;SDS011;5152;59.674;16.838;2023-01-10T07:44:15;5.40;;;2.63;;
10216;SDS011;5152;59.674;16.838;2023-01-10T07:46:41;11.17;;;2.57;;
10216;SDS011;5152;59.674;16.838;2023-01-10T07:49:08;1.87;;;1.20;;
10216;SDS011;5152;59.674;16.838;2023-01-10T07:51:36;3.63;;;2.23;;
10216;SDS011;5152;59.674;16.838;2023-01-10T07:54:03;2.27;;;1.40;;
10216;SDS011;5152;59.674;16.838;2023-01-10T07:56:30;3.97;;;1.63;;
10216;SDS011;5152;59.674;16.838;2023-01-10T07:58:57;8.67;;;2.73;;
10216;SDS011;5152;59.674;16.838;2023-01-10T08:01:25;1.67;;;1.30;;
10216;SDS011;5152;59.674;16.838;2023-01-10T08:03:52;1.80;;;1.70;;
10216;SDS011;5152;59.674;16.838;2023-01-10T08:06:19;1.60;;;1.10;;
10216;SDS011;5152;59.674;16.838;2023-01-10T08:08:47;5.67;;;2.03;;
10216;SDS011;5152;59.674;16.838;2023-01-10T08:11:13;2.23;;;1.43;;
10216;SDS011;5152;59.674;16.838;2023-01-10T08:13:40;2.40;;;1.60;;
10216;SDS011;5152;59.674;16.838;2023-01-10T08:16:07;1.20;;;1.10;;
10216;SDS011;5152;59.674;16.838;2023-01-10T08:18:34;2.10;;;1.70;;
10216;SDS011;5152;59.674;16.838;2023-01-10T08:21:02;2.07;;;1.63;;
10216;SDS011;5152;59.674;16.838;2023-01-10T08:23:29;1.80;;;1.23;;
10216;SDS011;5152;59.674;16.838;2023-01-10T08:25:58;1.90;;;1.47;;
10216;SDS011;5152;59.674;16.838;2023-01-10T08:28:24;1.80;;;1.27;;
10216;SDS011;5152;59.674;16.838;2023-01-10T08:30:51;4.30;;;2.17;;
10216;SDS011;5152;59.674;16.838;2023-01-10T08:33:20;2.50;;;1.77;;
10216;SDS011;5152;59.674;16.838;2023-01-10T08:35:47;2.47;;;1.73;;
10216;SDS011;5152;59.674;16.838;2023-01-10T08:38:15;4.20;;;1.40;;
10216;SDS011;5152;59.674;16.838;2023-01-10T08:40:41;2.30;;;1.53;;
10216;SDS011;5152;59.674;16.838;2023-01-10T08:43:10;2.03;;;1.30;;
10216;SDS011;5152;59.674;16.838;2023-01-10T08:45:37;2.47;;;1.30;;
10216;SDS011;5152;59.674;16.838;2023-01-10T08:48:04;2.40;;;2.00;;
10216;SDS011;5152;59.674;16.838;2023-01-10T08:50:33;1.93;;;1.13;;
10216;SDS011;5152;59.674;16.838;2023-01-10T08:53:00;3.30;;;1.77;;
10216;SDS011;5152;59.674;16.838;2023-01-10T08:55:27;3.00;;;1.87;;
10216;SDS011;5152;59.674;16.838;2023-01-10T08:57:56;1.37;;;1.20;;
10216;SDS011;5152;59.674;16.838;2023-01-10T09:00:25;3.23;;;1.90;;
10216;SDS011;5152;59.674;16.838;2023-01-10T09:02:52;1.83;;;1.23;;
10216;SDS011;5152;59.674;16.838;2023-01-10T09:05:19;1.30;;;1.20;;
10216;SDS011;5152;59.674;16.838;2023-01-10T09:07:46;3.67;;;2.10;;
10216;SDS011;5152;59.674;16.838;2023-01-10T09:10:13;10.33;;;2.90;;
10216;SDS011;5152;59.674;16.838;2023-01-10T09:12:39;3.30;;;1.50;;
10216;SDS011;5152;59.674;16.838;2023-01-10T09:15:21;2.00;;;1.23;;
10216;SDS011;5152;59.674;16.838;2023-01-10T09:17:53;4.83;;;3.17;;
10216;SDS011;5152;59.674;16.838;2023-01-10T09:20:20;6.57;;;2.10;;
10216;SDS011;5152;59.674;16.838;2023-01-10T09:22:47;3.77;;;1.90;;
10216;SDS011;5152;59.674;16.838;2023-01-10T09:25:14;5.00;;;1.80;;
10216;SDS011;5152;59.674;16.838;2023-01-10T09:27:40;5.87;;;3.00;;
10216;SDS011;5152;59.674;16.838;2023-01-10T09:30:07;5.83;;;1.27;;
10216;SDS011;5152;59.674;16.838;2023-01-10T09:32:35;16.37;;;2.90;;
10216;SDS011;5152;59.674;16.838;2023-01-10T09:35:03;1.17;;;1.07;;
10216;SDS011;5152;59.674;16.838;2023-01-10T09:37:31;4.30;;;1.90;;
10216;SDS011;5152;59.674;16.838;2023-01-10T09:39:58;3.40;;;1.70;;
10216;SDS011;5152;59.674;16.838;2023-01-10T09:42:28;2.77;;;1.90;;
10216;SDS011;5152;59.674;16.838;2023-01-10T09:45:14;12.23;;;2.73;;
10216;SDS011;5152;59.674;16.838;2023-01-10T09:47:46;2.07;;;1.40;;
10216;SDS011;5152;59.674;16.838;2023-01-10T09:50:20;2.23;;;1.50;;
10216;SDS011;5152;59.674;16.838;2023-01-10T09:52:50;4.27;;;1.40;;
10216;SDS011;5152;59.674;16.838;2023-01-10T09:55:23;2.20;;;1.40;;
10216;SDS011;5152;59.674;16.838;2023-01-10T09:57:52;2.83;;;1.43;;
10216;SDS011;5152;59.674;16.838;2023-01-10T10:00:21;2.03;;;1.30;;
10216;SDS011;5152;59.674;16.838;2023-01-10T10:02:50;1.43;;;1.20;;
10216;SDS011;5152;59.674;16.838;2023-01-10T10:05:20;3.53;;;2.33;;
10216;SDS011;5152;59.674;16.838;2023-01-10T10:07:50;4.73;;;2.30;;
10216;SDS011;5152;59.674;16.838;2023-01-10T10:10:20;1.37;;;1.20;;
10216;SDS011;5152;59.674;16.838;2023-01-10T10:12:51;2.10;;;1.50;;
10216;SDS011;5152;59.674;16.838;2023-01-10T10:15:27;5.60;;;1.53;;
10216;SDS011;5152;59.674;16.838;2023-01-10T10:18:01;4.10;;;2.20;;
10216;SDS011;5152;59.674;16.838;2023-01-10T10:20:38;13.20;;;2.70;;
10216;SDS011;5152;59.674;16.838;2023-01-10T10:23:22;2.90;;;1.60;;
10216;SDS011;5152;59.674;16.838;2023-01-10T10:26:00;3.20;;;2.00;;
10216;SDS011;5152;59.674;16.838;2023-01-10T10:31:14;31.23;;;3.53;;
10216;SDS011;5152;59.674;16.838;2023-01-10T10:33:50;2.50;;;1.83;;
10216;SDS011;5152;59.674;16.838;2023-01-10T10:36:25;2.87;;;1.73;;
10216;SDS011;5152;59.674;16.838;2023-01-10T10:38:53;4.03;;;2.53;;
10216;SDS011;5152;59.674;16.838;2023-01-10T10:41:27;4.00;;;2.37;;
10216;SDS011;5152;59.674;16.838;2023-01-10T10:43:57;2.00;;;1.20;;
10216;SDS011;5152;59.674;16.838;2023-01-10T10:46:28;1.20;;;1.10;;
10216;SDS011;5152;59.674;16.838;2023-01-10T10:48:56;3.53;;;2.47;;
10216;SDS011;5152;59.674;16.838;2023-01-10T10:51:26;15.90;;;3.20;;
10216;SDS011;5152;59.674;16.838;2023-01-10T10:53:55;2.00;;;1.50;;
10216;SDS011;5152;59.674;16.838;2023-01-10T10:56:23;3.83;;;1.77;;
10216;SDS011;5152;59.674;16.838;2023-01-10T10:58:50;2.80;;;1.63;;
10216;SDS011;5152;59.674;16.838;2023-01-10T11:01:19;3.73;;;1.80;;
10216;SDS011;5152;59.674;16.838;2023-01-10T11:03:47;5.90;;;3.93;;
10216;SDS011;5152;59.674;16.838;2023-01-10T11:06:15;2.70;;;1.93;;
10216;SDS011;5152;59.674;16.838;2023-01-10T11:08:45;5.07;;;1.70;;
10216;SDS011;5152;59.674;16.838;2023-01-10T11:11:15;5.23;;;3.33;;
10216;SDS011;5152;59.674;16.838;2023-01-10T11:13:45;5.30;;;3.13;;
10216;SDS011;5152;59.674;16.838;2023-01-10T11:16:26;3.83;;;2.53;;
10216;SDS011;5152;59.674;16.838;2023-01-10T11:19:08;2.53;;;1.80;;
10216;SDS011;5152;59.674;16.838;2023-01-10T11:21:36;5.03;;;2.90;;
10216;SDS011;5152;59.674;16.838;2023-01-10T11:24:12;4.23;;;3.57;;
10216;SDS011;5152;59.674;16.838;2023-01-10T11:26:48;3.13;;;2.33;;
10216;SDS011;5152;59.674;16.838;2023-01-10T11:29:16;6.17;;;4.10;;
10216;SDS011;5152;59.674;16.838;2023-01-10T11:31:45;3.73;;;2.13;;
10216;SDS011;5152;59.674;16.838;2023-01-10T11:34:19;4.50;;;2.60;;
10216;SDS011;5152;59.674;16.838;2023-01-10T11:36:51;4.37;;;3.30;;
10216;SDS011;5152;59.674;16.838;2023-01-10T11:39:24;5.03;;;2.87;;
10216;SDS011;5152;59.674;16.838;2023-01-10T11:41:51;11.17;;;4.40;;
10216;SDS011;5152;59.674;16.838;2023-01-10T11:44:21;5.90;;;3.30;;
10216;SDS011;5152;59.674;16.838;2023-01-10T11:46:49;5.07;;;3.43;;
10216;SDS011;5152;59.674;16.838;2023-01-10T11:49:20;9.23;;;5.57;;
10216;SDS011;5152;59.674;16.838;2023-01-10T11:51:52;7.70;;;4.83;;
10216;SDS011;5152;59.674;16.838;2023-01-10T11:54:25;9.80;;;4.53;;
10216;SDS011;5152;59.674;16.838;2023-01-10T11:56:54;4.77;;;3.10;;
10216;SDS011;5152;59.674;16.838;2023-01-10T11:59:22;4.63;;;2.57;;
10216;SDS011;5152;59.674;16.838;2023-01-10T12:01:52;6.00;;;2.53;;
10216;SDS011;5152;59.674;16.838;2023-01-10T12:04:20;4.47;;;1.90;;
10216;SDS011;5152;59.674;16.838;2023-01-10T12:06:49;4.37;;;2.60;;
10216;SDS011;5152;59.674;16.838;2023-01-10T12:09:31;2.17;;;1.77;;
10216;SDS011;5152;59.674;16.838;2023-01-10T12:12:03;6.73;;;4.37;;
10216;SDS011;5152;59.674;16.838;2023-01-10T12:14:31;3.33;;;2.20;;
10216;SDS011;5152;59.674;16.838;2023-01-10T12:16:58;4.47;;;3.27;;
10216;SDS011;5152;59.674;16.838;2023-01-10T12:19:26;5.13;;;2.67;;
10216;SDS011;5152;59.674;16.838;2023-01-10T12:21:53;5.90;;;4.10;;
10216;SDS011;5152;59.674;16.838;2023-01-10T12:24:21;5.27;;;3.70;;
10216;SDS011;5152;59.674;16.838;2023-01-10T12:26:51;6.13;;;4.13;;
10216;SDS011;5152;59.674;16.838;2023-01-10T12:29:19;5.70;;;2.97;;
10216;SDS011;5152;59.674;16.838;2023-01-10T12:31:48;3.77;;;2.33;;
10216;SDS011;5152;59.674;16.838;2023-01-10T12:34:18;3.63;;;2.83;;
10216;SDS011;5152;59.674;16.838;2023-01-10T12:36:53;11.70;;;4.07;;
10216;SDS011;5152;59.674;16.838;2023-01-10T12:39:26;10.17;;;3.80;;
10216;SDS011;5152;59.674;16.838;2023-01-10T12:42:00;3.17;;;1.40;;
10216;SDS011;5152;59.674;16.838;2023-01-10T12:44:58;6.77;;;2.20;;
10216;SDS011;5152;59.674;16.838;2023-01-10T12:47:28;5.27;;;3.53;;
10216;SDS011;5152;59.674;16.838;2023-01-10T12:49:59;3.73;;;2.10;;
10216;SDS011;5152;59.674;16.838;2023-01-10T12:52:30;3.43;;;2.60;;
10216;SDS011;5152;59.674;16.838;2023-01-10T12:55:01;13.47;;;4.13;;
10216;SDS011;5152;59.674;16.838;2023-01-10T12:57:31;3.10;;;1.93;;
10216;SDS011;5152;59.674;16.838;2023-01-10T13:00:03;5.40;;;3.27;;
10216;SDS011;5152;59.674;16.838;2023-01-10T13:02:36;6.33;;;2.47;;
10216;SDS011;5152;59.674;16.838;2023-01-10T13:05:04;3.30;;;2.20;;
10216;SDS011;5152;59.674;16.838;2023-01-10T13:07:32;4.20;;;2.47;;
10216;SDS011;5152;59.674;16.838;2023-01-10T13:10:00;1.70;;;1.60;;
10216;SDS011;5152;59.674;16.838;2023-01-10T13:12:29;2.90;;;1.93;;
10216;SDS011;5152;59.674;16.838;2023-01-10T13:15:00;8.10;;;4.00;;
10216;SDS011;5152;59.674;16.838;2023-01-10T13:17:33;7.43;;;3.83;;
10216;SDS011;5152;59.674;16.838;2023-01-10T13:20:16;4.50;;;2.07;;
10216;SDS011;5152;59.674;16.838;2023-01-10T13:22:58;15.47;;;4.43;;
10216;SDS011;5152;59.674;16.838;2023-01-10T13:25:26;7.47;;;4.57;;
10216;SDS011;5152;59.674;16.838;2023-01-10T13:27:57;8.27;;;4.47;;
10216;SDS011;5152;59.674;16.838;2023-01-10T13:30:25;8.67;;;5.00;;
10216;SDS011;5152;59.674;16.838;2023-01-10T13:32:56;7.27;;;3.73;;
10216;SDS011;5152;59.674;16.838;2023-01-10T13:35:26;3.37;;;2.73;;
10216;SDS011;5152;59.674;16.838;2023-01-10T13:37:53;2.13;;;1.80;;
10216;SDS011;5152;59.674;16.838;2023-01-10T13:40:21;5.57;;;3.60;;
10216;SDS011;5152;59.674;16.838;2023-01-10T13:49:20;5.30;;;2.80;;
10216;SDS011;5152;59.674;16.838;2023-01-10T13:55:00;1.83;;;1.50;;
10216;SDS011;5152;59.674;16.838;2023-01-10T13:57:47;4.40;;;2.50;;
10216;SDS011;5152;59.674;16.838;2023-01-10T14:03:35;2.57;;;1.50;;
10216;SDS011;5152;59.674;16.838;2023-01-10T14:06:04;2.03;;;1.60;;
10216;SDS011;5152;59.674;16.838;2023-01-10T14:08:35;1.93;;;1.50;;
10216;SDS011;5152;59.674;16.838;2023-01-10T14:11:05;2.17;;;1.97;;
10216;SDS011;5152;59.674;16.838;2023-01-10T14:13:33;1.27;;;1.17;;
10216;SDS011;5152;59.674;16.838;2023-01-10T14:16:02;2.03;;;1.63;;
10216;SDS011;5152;59.674;16.838;2023-01-10T14:18:31;2.73;;;2.20;;
10216;SDS011;5152;59.674;16.838;2023-01-10T14:21:00;4.60;;;2.90;;
10216;SDS011;5152;59.674;16.838;2023-01-10T14:23:29;6.37;;;3.60;;
10216;SDS011;5152;59.674;16.838;2023-01-10T14:25:59;5.60;;;3.43;;
10216;SDS011;5152;59.674;16.838;2023-01-10T14:28:27;7.30;;;3.07;;
10216;SDS011;5152;59.674;16.838;2023-01-10T14:30:58;2.57;;;1.80;;
10216;SDS011;5152;59.674;16.838;2023-01-10T14:33:28;2.53;;;1.90;;
10216;SDS011;5152;59.674;16.838;2023-01-10T14:35:56;2.37;;;1.30;;
10216;SDS011;5152;59.674;16.838;2023-01-10T14:38:25;1.77;;;1.23;;
10216;SDS011;5152;59.674;16.838;2023-01-10T14:40:54;2.97;;;2.20;;
10216;SDS011;5152;59.674;16.838;2023-01-10T14:43:23;1.77;;;1.30;;
10216;SDS011;5152;59.674;16.838;2023-01-10T14:45:52;2.67;;;2.00;;
10216;SDS011;5152;59.674;16.838;2023-01-10T14:48:24;2.67;;;1.60;;
10216;SDS011;5152;59.674;16.838;2023-01-10T14:51:06;2.10;;;1.90;;
10216;SDS011;5152;59.674;16.838;2023-01-10T14:53:45;2.47;;;1.80;;
10216;SDS011;5152;59.674;16.838;2023-01-10T14:56:16;2.17;;;1.70;;
10216;SDS011;5152;59.674;16.838;2023-01-10T14:58:44;1.43;;;1.20;;
10216;SDS011;5152;59.674;16.838;2023-01-10T15:01:11;1.90;;;1.50;;
10216;SDS011;5152;59.674;16.838;2023-01-10T15:03:43;1.93;;;1.40;;
10216;SDS011;5152;59.674;16.838;2023-01-10T15:06:12;3.17;;;1.17;;
10216;SDS011;5152;59.674;16.838;2023-01-10T15:08:41;2.33;;;1.40;;
10216;SDS011;5152;59.674;16.838;2023-01-10T15:11:08;2.40;;;1.27;;
10216;SDS011;5152;59.674;16.838;2023-01-10T15:13:40;1.60;;;1.30;;
10216;SDS011;5152;59.674;16.838;2023-01-10T15:16:11;1.23;;;1.03;;
10216;SDS011;5152;59.674;16.838;2023-01-10T15:18:43;1.73;;;1.13;;
10216;SDS011;5152;59.674;16.838;2023-01-10T15:21:12;2.80;;;1.33;;
10216;SDS011;5152;59.674;16.838;2023-01-10T15:23:41;1.30;;;0.80;;
10216;SDS011;5152;59.674;16.838;2023-01-10T15:26:10;2.47;;;1.13;;